Time,TemperatureF,DewpointF,PressureIn,WindDirection,WindDirectionDegrees,WindSpeedMPH,WindSpeedGustMPH,Humidity,HourlyPrecipIn,Conditions,Clouds,dailyrainin,SoftwareType,DateUTC
2013-04-28 00:02:00,61.0,55.0,29.68,NNE,19,0.0,0.0,81,0.00,,,0.00,,2013-04-28 04:02:00,
2013-04-28 00:13:00,61.0,55.0,29.68,NNE,19,0.0,0.0,81,0.00,,,0.00,,2013-04-28 04:13:00,
2013-04-28 00:22:00,61.0,55.0,29.68,NNE,19,0.0,0.0,82,0.00,,,0.00,,2013-04-28 04:22:00,
2013-04-28 00:32:00,60.0,55.0,29.68,NNE,19,0.0,0.0,84,0.00,,,0.00,,2013-04-28 04:32:00,
2013-04-28 00:42:00,60.0,55.0,29.68,NNE,19,0.0,0.0,84,0.00,,,0.00,,2013-04-28 04:42:00,
2013-04-28 00:53:00,60.0,55.0,29.68,NNE,19,0.0,0.0,84,0.00,,,0.00,,2013-04-28 04:53:00,
2013-04-28 01:02:00,60.0,55.0,29.68,NNE,19,0.0,0.0,85,0.00,,,0.00,,2013-04-28 05:02:00,
2013-04-28 01:12:00,60.0,55.0,29.68,NNE,19,0.0,0.0,85,0.00,,,0.00,,2013-04-28 05:12:00,
2013-04-28 01:22:00,59.0,54.0,29.68,NNE,19,0.0,0.0,85,0.00,,,0.00,,2013-04-28 05:22:00,
2013-04-28 01:32:00,59.0,55.0,29.68,NNE,19,0.0,0.0,86,0.00,,,0.00,,2013-04-28 05:32:00,
2013-04-28 01:42:00,59.0,55.0,29.68,NNE,19,0.0,0.0,86,0.00,,,0.00,,2013-04-28 05:42:00,
2013-04-28 01:52:00,58.0,54.0,29.68,NNE,19,0.0,0.0,87,0.00,,,0.00,,2013-04-28 05:52:00,
2013-04-28 02:01:00,57.0,54.0,29.70,NNE,19,0.0,0.0,89,0.00,,,0.00,,2013-04-28 06:01:00,
2013-04-28 02:12:00,57.0,54.0,29.70,NNE,19,0.0,0.0,89,0.00,,,0.00,,2013-04-28 06:12:00,
2013-04-28 02:21:00,57.0,54.0,29.70,NNE,19,0.0,0.0,89,0.00,,,0.00,,2013-04-28 06:21:00,
2013-04-28 02:32:00,57.0,54.0,29.70,NNE,26,0.0,1.0,89,0.00,,,0.00,,2013-04-28 06:32:00,
2013-04-28 02:42:00,57.0,54.0,29.70,NNE,26,0.0,1.0,89,0.00,,,0.00,,2013-04-28 06:42:00,
2013-04-28 02:52:00,57.0,54.0,29.70,NE,37,0.0,1.0,89,0.00,,,0.00,,2013-04-28 06:52:00,
2013-04-28 03:01:00,56.0,53.0,29.70,NE,46,0.0,1.0,90,0.00,,,0.00,,2013-04-28 07:01:00,
2013-04-28 03:11:00,56.0,53.0,29.70,NE,46,0.0,1.0,90,0.00,,,0.00,,2013-04-28 07:11:00,
2013-04-28 03:21:00,56.0,53.0,29.70,ENE,63,0.0,1.0,90,0.00,,,0.00,,2013-04-28 07:21:00,
2013-04-28 03:31:00,56.0,54.0,29.68,ENE,63,0.0,1.0,92,0.00,,,0.00,,2013-04-28 07:31:00,
2013-04-28 03:42:00,56.0,54.0,29.68,ENE,63,0.0,1.0,92,0.00,,,0.00,,2013-04-28 07:42:00,
2013-04-28 03:52:00,56.0,54.0,29.68,ENE,67,0.0,1.0,92,0.00,,,0.00,,2013-04-28 07:52:00,
2013-04-28 04:02:00,56.0,53.0,29.67,East,80,0.0,0.0,91,0.00,,,0.00,,2013-04-28 08:02:00,
2013-04-28 04:11:00,56.0,53.0,29.67,East,80,0.0,0.0,91,0.00,,,0.00,,2013-04-28 08:11:00,
2013-04-28 04:21:00,55.0,53.0,29.67,East,80,0.0,0.0,92,0.00,,,0.00,,2013-04-28 08:21:00,
2013-04-28 04:32:00,55.0,53.0,29.67,East,80,0.0,0.0,93,0.00,,,0.00,,2013-04-28 08:32:00,
2013-04-28 04:42:00,55.0,53.0,29.67,East,80,0.0,0.0,93,0.00,,,0.00,,2013-04-28 08:42:00,
2013-04-28 04:52:00,54.0,52.0,29.67,East,80,0.0,0.0,93,0.00,,,0.00,,2013-04-28 08:52:00,
2013-04-28 05:01:00,54.0,52.0,29.65,East,80,0.0,0.0,93,0.00,,,0.00,,2013-04-28 09:01:00,
2013-04-28 05:11:00,54.0,52.0,29.65,East,80,0.0,0.0,93,0.00,,,0.00,,2013-04-28 09:11:00,
2013-04-28 05:21:00,54.0,52.0,29.65,East,80,0.0,0.0,93,0.00,,,0.00,,2013-04-28 09:21:00,
2013-04-28 05:33:00,54.0,52.0,29.65,East,80,0.0,0.0,93,0.00,,,0.00,,2013-04-28 09:33:00,
2013-04-28 05:42:00,54.0,52.0,29.65,East,80,0.0,0.0,93,0.00,,,0.00,,2013-04-28 09:42:00,
2013-04-28 05:53:00,53.0,51.0,29.65,East,80,0.0,0.0,93,0.00,,,0.00,,2013-04-28 09:53:00,
2013-04-28 06:03:00,53.0,51.0,29.65,East,80,0.0,0.0,94,0.00,,,0.00,,2013-04-28 10:03:00,
2013-04-28 06:12:00,53.0,51.0,29.65,East,80,0.0,0.0,94,0.00,,,0.00,,2013-04-28 10:12:00,
2013-04-28 06:22:00,53.0,51.0,29.65,East,80,0.0,0.0,94,0.00,,,0.00,,2013-04-28 10:22:00,
2013-04-28 06:32:00,53.0,52.0,29.65,East,80,0.0,0.0,95,0.00,,,0.00,,2013-04-28 10:32:00,
2013-04-28 06:42:00,53.0,52.0,29.65,East,80,0.0,0.0,95,0.00,,,0.00,,2013-04-28 10:42:00,
2013-04-28 06:53:00,52.0,50.0,29.64,East,80,0.0,0.0,94,0.00,,,0.00,,2013-04-28 10:53:00,
2013-04-28 07:02:00,52.0,50.0,29.63,East,80,0.0,0.0,94,0.00,,,0.00,,2013-04-28 11:02:00,
2013-04-28 07:11:00,52.0,50.0,29.63,East,80,0.0,0.0,94,0.00,,,0.00,,2013-04-28 11:11:00,
2013-04-28 07:22:00,52.0,51.0,29.64,East,80,0.0,0.0,95,0.00,,,0.00,,2013-04-28 11:22:00,
2013-04-28 07:32:00,53.0,52.0,29.65,ENE,57,0.0,0.0,95,0.00,,,0.00,,2013-04-28 11:32:00,
2013-04-28 07:42:00,53.0,52.0,29.65,ENE,57,0.0,0.0,95,0.00,,,0.00,,2013-04-28 11:42:00,
2013-04-28 07:52:00,54.0,53.0,29.65,NNE,12,0.0,0.0,95,0.00,,,0.00,,2013-04-28 11:52:00,
2013-04-28 08:02:00,54.0,53.0,29.64,NNE,12,0.0,0.0,95,0.00,,,0.00,,2013-04-28 12:02:00,
2013-04-28 08:12:00,54.0,53.0,29.64,NNE,12,0.0,0.0,95,0.00,,,0.00,,2013-04-28 12:12:00,
2013-04-28 08:21:00,54.0,53.0,29.65,NNE,12,0.0,0.0,95,0.00,,,0.00,,2013-04-28 12:21:00,
2013-04-28 08:32:00,55.0,54.0,29.65,NNE,12,0.0,0.0,95,0.00,,,0.00,,2013-04-28 12:32:00,
2013-04-28 08:42:00,55.0,54.0,29.65,NNE,12,0.0,0.0,95,0.00,,,0.00,,2013-04-28 12:42:00,
2013-04-28 08:52:00,56.0,55.0,29.66,NNE,12,0.0,0.0,95,0.00,,,0.00,,2013-04-28 12:52:00,
2013-04-28 09:02:00,57.0,55.0,29.67,NNE,12,0.0,0.0,93,0.00,,,0.00,,2013-04-28 13:02:00,
2013-04-28 09:11:00,57.0,55.0,29.67,NNE,12,0.0,0.0,93,0.00,,,0.00,,2013-04-28 13:11:00,
2013-04-28 09:21:00,57.0,54.0,29.67,NNE,30,1.0,3.0,91,0.00,,,0.00,,2013-04-28 13:21:00,
2013-04-28 09:31:00,58.0,55.0,29.68,NE,34,1.0,4.0,91,0.00,,,0.00,,2013-04-28 13:31:00,
2013-04-28 09:42:00,58.0,55.0,29.68,NE,34,1.0,4.0,91,0.00,,,0.00,,2013-04-28 13:42:00,
2013-04-28 09:52:00,58.0,55.0,29.68,NE,35,0.0,5.0,91,0.00,,,0.00,,2013-04-28 13:52:00,
2013-04-28 10:01:00,58.0,55.0,29.69,NE,38,0.0,5.0,90,0.00,,,0.00,,2013-04-28 14:01:00,
2013-04-28 10:11:00,58.0,55.0,29.69,NE,38,0.0,5.0,90,0.00,,,0.00,,2013-04-28 14:11:00,
2013-04-28 10:22:00,59.0,56.0,29.68,ENE,57,0.0,3.0,90,0.00,,,0.00,,2013-04-28 14:22:00,
2013-04-28 10:32:00,59.0,56.0,29.69,NE,43,0.0,5.0,89,0.00,,,0.00,,2013-04-28 14:32:00,
2013-04-28 10:42:00,59.0,56.0,29.69,NE,43,0.0,5.0,89,0.00,,,0.00,,2013-04-28 14:42:00,
2013-04-28 10:52:00,59.0,56.0,29.69,East,89,1.0,3.0,90,0.00,,,0.00,,2013-04-28 14:52:00,
2013-04-28 11:01:00,60.0,57.0,29.69,NE,56,1.0,7.0,89,0.00,,,0.00,,2013-04-28 15:01:00,
2013-04-28 11:12:00,60.0,57.0,29.69,NE,56,1.0,7.0,89,0.00,,,0.00,,2013-04-28 15:12:00,
2013-04-28 11:21:00,61.0,57.0,29.68,ESE,109,3.0,6.0,87,0.00,,,0.00,,2013-04-28 15:21:00,
2013-04-28 11:32:00,62.0,58.0,29.68,ESE,108,3.0,7.0,86,0.00,,,0.00,,2013-04-28 15:32:00,
2013-04-28 11:42:00,62.0,58.0,29.68,ESE,108,3.0,7.0,86,0.00,,,0.00,,2013-04-28 15:42:00,
2013-04-28 11:53:00,63.0,58.0,29.68,SE,125,2.0,7.0,85,0.00,,,0.00,,2013-04-28 15:53:00,
2013-04-28 12:03:00,63.0,58.0,29.68,East,80,2.0,6.0,85,0.00,,,0.00,,2013-04-28 16:03:00,
2013-04-28 12:13:00,63.0,58.0,29.68,East,80,2.0,6.0,85,0.00,,,0.00,,2013-04-28 16:13:00,
2013-04-28 12:23:00,65.0,60.0,29.67,ESE,117,2.0,7.0,83,0.00,,,0.00,,2013-04-28 16:23:00,
2013-04-28 12:33:00,66.0,61.0,29.67,ESE,122,3.0,7.0,83,0.00,,,0.00,,2013-04-28 16:33:00,
2013-04-28 12:42:00,66.0,61.0,29.67,ESE,122,3.0,7.0,83,0.00,,,0.00,,2013-04-28 16:42:00,
2013-04-28 12:52:00,67.0,61.0,29.67,ENE,74,1.0,8.0,81,0.00,,,0.00,,2013-04-28 16:52:00,
2013-04-28 13:02:00,69.0,61.0,29.66,SE,125,5.0,8.0,77,0.00,,,0.00,,2013-04-28 17:02:00,
2013-04-28 13:12:00,69.0,61.0,29.66,SE,125,5.0,8.0,77,0.00,,,0.00,,2013-04-28 17:12:00,
2013-04-28 13:22:00,70.0,62.0,29.66,East,90,2.0,5.0,77,0.00,,,0.00,,2013-04-28 17:22:00,
2013-04-28 13:32:00,73.0,64.0,29.65,SE,134,0.0,7.0,74,0.00,,,0.00,,2013-04-28 17:32:00,
2013-04-28 13:42:00,73.0,64.0,29.65,SE,134,0.0,7.0,74,0.00,,,0.00,,2013-04-28 17:42:00,
2013-04-28 13:52:00,73.0,64.0,29.65,SE,133,3.0,7.0,74,0.00,,,0.00,,2013-04-28 17:52:00,
2013-04-28 14:02:00,74.0,65.0,29.65,SE,140,1.0,5.0,73,0.00,,,0.00,,2013-04-28 18:02:00,
2013-04-28 14:12:00,74.0,65.0,29.65,SE,140,1.0,5.0,73,0.00,,,0.00,,2013-04-28 18:12:00,
2013-04-28 14:22:00,74.0,64.0,29.64,East,90,1.0,6.0,71,0.00,,,0.00,,2013-04-28 18:22:00,
2013-04-28 14:32:00,75.0,64.0,29.63,NW,325,1.0,6.0,69,0.00,,,0.00,,2013-04-28 18:32:00,
2013-04-28 14:42:00,75.0,64.0,29.63,NW,325,1.0,6.0,69,0.00,,,0.00,,2013-04-28 18:42:00,
2013-04-28 14:52:00,76.0,65.0,29.62,East,96,2.0,6.0,68,0.00,,,0.00,,2013-04-28 18:52:00,
2013-04-28 15:02:00,78.0,65.0,29.62,NE,56,2.0,10.0,64,0.00,,,0.00,,2013-04-28 19:02:00,
2013-04-28 15:11:00,78.0,65.0,29.62,NE,56,2.0,10.0,64,0.00,,,0.00,,2013-04-28 19:11:00,
2013-04-28 15:22:00,78.0,65.0,29.61,East,101,1.0,7.0,64,0.00,,,0.00,,2013-04-28 19:22:00,
2013-04-28 15:32:00,78.0,65.0,29.60,ESE,117,3.0,9.0,64,0.00,,,0.00,,2013-04-28 19:32:00,
2013-04-28 15:42:00,78.0,65.0,29.60,ESE,117,3.0,9.0,64,0.00,,,0.00,,2013-04-28 19:42:00,
2013-04-28 15:52:00,78.0,64.0,29.60,ESE,117,3.0,10.0,63,0.00,,,0.00,,2013-04-28 19:52:00,
2013-04-28 16:02:00,80.0,65.0,29.60,SE,132,6.0,11.0,61,0.00,,,0.00,,2013-04-28 20:02:00,
2013-04-28 16:12:00,80.0,65.0,29.60,SE,132,6.0,11.0,61,0.00,,,0.00,,2013-04-28 20:12:00,
2013-04-28 16:22:00,79.0,65.0,29.59,ENE,59,3.0,12.0,63,0.00,,,0.00,,2013-04-28 20:22:00,
2013-04-28 16:32:00,79.0,65.0,29.59,SE,143,3.0,9.0,62,0.00,,,0.00,,2013-04-28 20:32:00,
2013-04-28 16:42:00,79.0,65.0,29.59,SE,143,3.0,9.0,62,0.00,,,0.00,,2013-04-28 20:42:00,
2013-04-28 16:52:00,80.0,65.0,29.57,South,178,2.0,8.0,61,0.00,,,0.00,,2013-04-28 20:52:00,
2013-04-28 17:01:00,81.0,66.0,29.56,ESE,116,5.0,8.0,60,0.00,,,0.00,,2013-04-28 21:01:00,
2013-04-28 17:11:00,81.0,66.0,29.56,ESE,116,5.0,8.0,60,0.00,,,0.00,,2013-04-28 21:11:00,
2013-04-28 17:22:00,82.0,66.0,29.55,East,101,5.0,10.0,58,0.00,,,0.00,,2013-04-28 21:22:00,
2013-04-28 17:32:00,82.0,66.0,29.54,ESE,121,4.0,9.0,58,0.00,,,0.00,,2013-04-28 21:32:00,
2013-04-28 17:42:00,82.0,66.0,29.54,ESE,121,4.0,9.0,58,0.00,,,0.00,,2013-04-28 21:42:00,
2013-04-28 17:53:00,81.0,64.0,29.54,South,173,5.0,10.0,57,0.00,,,0.00,,2013-04-28 21:53:00,
2013-04-28 18:03:00,81.0,64.0,29.54,SE,142,2.0,9.0,57,0.00,,,0.00,,2013-04-28 22:03:00,
2013-04-28 18:12:00,81.0,64.0,29.54,SE,142,2.0,9.0,57,0.00,,,0.00,,2013-04-28 22:12:00,
2013-04-28 18:23:00,82.0,64.0,29.53,SE,143,1.0,7.0,54,0.00,,,0.00,,2013-04-28 22:23:00,
2013-04-28 18:33:00,81.0,63.0,29.53,SSE,166,4.0,11.0,55,0.00,,,0.00,,2013-04-28 22:33:00,
2013-04-28 18:42:00,81.0,63.0,29.53,SSE,166,4.0,11.0,55,0.00,,,0.00,,2013-04-28 22:42:00,
2013-04-28 18:52:00,81.0,63.0,29.52,South,172,2.0,8.0,55,0.00,,,0.00,,2013-04-28 22:52:00,
2013-04-28 19:02:00,81.0,63.0,29.52,SE,136,2.0,8.0,54,0.00,,,0.00,,2013-04-28 23:02:00,
2013-04-28 19:12:00,81.0,63.0,29.52,SE,136,2.0,8.0,54,0.00,,,0.00,,2013-04-28 23:12:00,
2013-04-28 19:22:00,81.0,64.0,29.52,SSE,161,2.0,10.0,56,0.00,,,0.00,,2013-04-28 23:22:00,
2013-04-28 19:32:00,80.0,63.0,29.52,South,175,2.0,7.0,57,0.00,,,0.00,,2013-04-28 23:32:00,
2013-04-28 19:42:00,80.0,63.0,29.52,South,175,2.0,7.0,57,0.00,,,0.00,,2013-04-28 23:42:00,
2013-04-28 19:52:00,80.0,64.0,29.52,ESE,116,4.0,9.0,59,0.00,,,0.00,,2013-04-28 23:52:00,
2013-04-28 20:01:00,80.0,64.0,29.52,ESE,107,5.0,10.0,59,0.00,,,0.00,,2013-04-29 00:01:00,
2013-04-28 20:11:00,80.0,64.0,29.52,ESE,107,5.0,10.0,59,0.00,,,0.00,,2013-04-29 00:11:00,
2013-04-28 20:22:00,79.0,64.0,29.51,ESE,113,3.0,11.0,61,0.00,,,0.00,,2013-04-29 00:22:00,
2013-04-28 20:32:00,79.0,64.0,29.52,SE,133,6.0,10.0,60,0.00,,,0.00,,2013-04-29 00:32:00,
2013-04-28 20:42:00,79.0,64.0,29.52,SE,133,6.0,10.0,60,0.00,,,0.00,,2013-04-29 00:42:00,
2013-04-28 20:52:00,78.0,63.0,29.52,SE,134,4.0,9.0,61,0.00,,,0.00,,2013-04-29 00:52:00,
2013-04-28 21:01:00,77.0,63.0,29.52,ESE,121,2.0,7.0,63,0.00,,,0.00,,2013-04-29 01:01:00,
2013-04-28 21:12:00,77.0,64.0,29.52,ESE,115,2.0,5.0,64,0.00,,,0.00,,2013-04-29 01:12:00,
2013-04-28 21:21:00,77.0,64.0,29.52,ESE,115,2.0,5.0,64,0.00,,,0.00,,2013-04-29 01:21:00,
2013-04-28 21:32:00,76.0,64.0,29.52,East,98,1.0,5.0,67,0.00,,,0.00,,2013-04-29 01:32:00,
2013-04-28 21:42:00,76.0,64.0,29.52,East,98,1.0,5.0,67,0.00,,,0.00,,2013-04-29 01:42:00,
2013-04-28 21:52:00,74.0,63.0,29.53,East,90,2.0,5.0,69,0.00,,,0.00,,2013-04-29 01:52:00,
2013-04-28 22:02:00,74.0,64.0,29.53,ESE,115,1.0,4.0,71,0.00,,,0.00,,2013-04-29 02:02:00,
2013-04-28 22:11:00,74.0,64.0,29.53,ESE,115,1.0,4.0,71,0.00,,,0.00,,2013-04-29 02:11:00,
2013-04-28 22:22:00,74.0,64.0,29.53,ESE,115,1.0,4.0,71,0.00,,,0.00,,2013-04-29 02:22:00,
2013-04-28 22:32:00,73.0,64.0,29.53,East,98,3.0,8.0,73,0.00,,,0.00,,2013-04-29 02:32:00,
2013-04-28 22:42:00,73.0,64.0,29.53,East,98,3.0,8.0,73,0.00,,,0.00,,2013-04-29 02:42:00,
2013-04-28 22:52:00,72.0,64.0,29.54,ESE,115,3.0,7.0,75,0.00,,,0.00,,2013-04-29 02:52:00,
2013-04-28 23:01:00,72.0,64.0,29.54,ESE,116,2.0,5.0,76,0.00,,,0.00,,2013-04-29 03:01:00,
2013-04-28 23:12:00,72.0,64.0,29.54,ESE,116,2.0,5.0,76,0.00,,,0.00,,2013-04-29 03:12:00,
2013-04-28 23:21:00,71.0,63.0,29.54,ESE,108,1.0,5.0,76,0.00,,,0.00,,2013-04-29 03:21:00,
2013-04-28 23:33:00,71.0,63.0,29.54,ESE,117,3.0,6.0,76,0.00,,,0.00,,2013-04-29 03:33:00,
2013-04-28 23:42:00,71.0,63.0,29.54,ESE,117,3.0,6.0,76,0.00,,,0.00,,2013-04-29 03:42:00,
2013-04-28 23:52:00,71.0,63.0,29.55,SE,124,1.0,4.0,76,0.00,,,0.00,,2013-04-29 03:52:00,